sensor_id;sensor_type;location;lat;lon;timestamp;pressure;altitude;pressure_sealevel;temperature;humidity
72677;BME280;60755;51.374;10.662;2022-07-29T00:02:12;97459.16;;;17.17;49.88
72677;BME280;60755;51.374;10.662;2022-07-29T00:04:40;97451.44;;;17.16;49.82
72677;BME280;60755;51.374;10.662;2022-07-29T00:07:07;97447.72;;;17.17;49.76
72677;BME280;60755;51.374;10.662;2022-07-29T00:09:33;97448.53;;;17.12;50.29
72677;BME280;60755;51.374;10.662;2022-07-29T00:12:00;97435.75;;;17.19;49.86
72677;BME280;60755;51.374;10.662;2022-07-29T00:14:28;97438.97;;;17.06;50.08
72677;BME280;60755;51.374;10.662;2022-07-29T00:16:55;97433.66;;;17.11;50.17
72677;BME280;60755;51.374;10.662;2022-07-29T00:19:21;97431.28;;;17.10;49.92
72677;BME280;60755;51.374;10.662;2022-07-29T00:21:49;97419.88;;;17.09;49.94
72677;BME280;60755;51.374;10.662;2022-07-29T00:24:16;97418.81;;;17.05;50.34
72677;BME280;60755;51.374;10.662;2022-07-29T00:26:42;97419.09;;;17.03;50.30
72677;BME280;60755;51.374;10.662;2022-07-29T00:29:08;97410.88;;;16.95;50.38
72677;BME280;60755;51.374;10.662;2022-07-29T00:31:35;97411.41;;;16.92;50.15
72677;BME280;60755;51.374;10.662;2022-07-29T00:34:01;97414.63;;;16.89;50.82
72677;BME280;60755;51.374;10.662;2022-07-29T00:36:28;97410.41;;;16.77;50.96
72677;BME280;60755;51.374;10.662;2022-07-29T00:38:55;97415.19;;;16.75;50.75
72677;BME280;60755;51.374;10.662;2022-07-29T00:41:21;97405.34;;;16.66;51.29
72677;BME280;60755;51.374;10.662;2022-07-29T00:43:48;97408.28;;;16.64;51.16
72677;BME280;60755;51.374;10.662;2022-07-29T00:46:14;97406.97;;;16.62;51.40
72677;BME280;60755;51.374;10.662;2022-07-29T00:48:41;97404.59;;;16.55;51.71
72677;BME280;60755;51.374;10.662;2022-07-29T00:51:07;97397.47;;;16.45;51.76
72677;BME280;60755;51.374;10.662;2022-07-29T00:53:35;97395.88;;;16.34;52.47
72677;BME280;60755;51.374;10.662;2022-07-29T00:56:05;97391.91;;;16.27;52.79
72677;BME280;60755;51.374;10.662;2022-07-29T00:58:31;97386.31;;;16.28;52.94
72677;BME280;60755;51.374;10.662;2022-07-29T01:00:58;97383.41;;;16.25;53.15
72677;BME280;60755;51.374;10.662;2022-07-29T01:03:24;97386.06;;;16.19;53.26
72677;BME280;60755;51.374;10.662;2022-07-29T01:05:51;97383.69;;;16.18;53.73
72677;BME280;60755;51.374;10.662;2022-07-29T01:08:19;97376.53;;;16.13;53.00
72677;BME280;60755;51.374;10.662;2022-07-29T01:10:46;97385.81;;;16.11;53.69
72677;BME280;60755;51.374;10.662;2022-07-29T01:13:15;97375.22;;;16.06;53.51
72677;BME280;60755;51.374;10.662;2022-07-29T01:15:44;97372.84;;;15.99;53.75
72677;BME280;60755;51.374;10.662;2022-07-29T01:18:22;97371.75;;;15.95;53.82
72677;BME280;60755;51.374;10.662;2022-07-29T01:21:03;97365.94;;;15.93;53.99
72677;BME280;60755;51.374;10.662;2022-07-29T01:23:48;97364.09;;;15.83;54.65
72677;BME280;60755;51.374;10.662;2022-07-29T01:26:41;97359.06;;;15.82;54.61
72677;BME280;60755;51.374;10.662;2022-07-29T01:29:16;97359.84;;;15.77;55.07
72677;BME280;60755;51.374;10.662;2022-07-29T01:31:48;97350.31;;;15.76;54.99
72677;BME280;60755;51.374;10.662;2022-07-29T01:34:21;97352.69;;;15.73;55.15
72677;BME280;60755;51.374;10.662;2022-07-29T01:36:54;97352.69;;;15.68;55.53
72677;BME280;60755;51.374;10.662;2022-07-29T01:39:26;97353.72;;;15.72;55.45
72677;BME280;60755;51.374;10.662;2022-07-29T01:41:58;97354.28;;;15.69;55.59
72677;BME280;60755;51.374;10.662;2022-07-29T01:44:32;97345.53;;;15.68;55.24
72677;BME280;60755;51.374;10.662;2022-07-29T01:47:03;97349.50;;;15.65;55.82
72677;BME280;60755;51.374;10.662;2022-07-29T01:49:35;97348.72;;;15.70;54.90
72677;BME280;60755;51.374;10.662;2022-07-29T01:52:05;97347.38;;;15.68;54.88
72677;BME280;60755;51.374;10.662;2022-07-29T01:54:35;97337.03;;;15.61;55.22
72677;BME280;60755;51.374;10.662;2022-07-29T01:57:04;97341.81;;;15.69;55.48
72677;BME280;60755;51.374;10.662;2022-07-29T01:59:34;97337.59;;;15.73;55.22
72677;BME280;60755;51.374;10.662;2022-07-29T02:02:04;97338.91;;;15.71;54.84
72677;BME280;60755;51.374;10.662;2022-07-29T02:04:35;97337.84;;;15.72;55.53
72677;BME280;60755;51.374;10.662;2022-07-29T02:07:05;97328.84;;;15.73;54.57
72677;BME280;60755;51.374;10.662;2022-07-29T02:09:35;97338.13;;;15.80;55.24
72677;BME280;60755;51.374;10.662;2022-07-29T02:12:04;97327.25;;;15.92;54.27
72677;BME280;60755;51.374;10.662;2022-07-29T02:14:36;97323.53;;;15.88;54.25
72677;BME280;60755;51.374;10.662;2022-07-29T02:17:03;97325.13;;;15.79;54.57
72677;BME280;60755;51.374;10.662;2022-07-29T02:19:31;97321.69;;;15.88;54.09
72677;BME280;60755;51.374;10.662;2022-07-29T02:21:59;97319.03;;;15.88;54.63
72677;BME280;60755;51.374;10.662;2022-07-29T02:24:27;97320.34;;;15.91;54.67
72677;BME280;60755;51.374;10.662;2022-07-29T02:26:56;97324.06;;;15.90;54.48
72677;BME280;60755;51.374;10.662;2022-07-29T02:29:26;97328.56;;;16.00;54.43
72677;BME280;60755;51.374;10.662;2022-07-29T02:31:57;97322.47;;;15.99;53.94
72677;BME280;60755;51.374;10.662;2022-07-29T02:34:24;97312.16;;;15.82;54.87
72677;BME280;60755;51.374;10.662;2022-07-29T02:36:52;97317.97;;;15.89;54.59
72677;BME280;60755;51.374;10.662;2022-07-29T02:39:19;97318.75;;;16.00;54.04
72677;BME280;60755;51.374;10.662;2022-07-29T02:41:48;97319.81;;;15.94;54.35
72677;BME280;60755;51.374;10.662;2022-07-29T02:44:17;97322.97;;;15.96;54.16
72677;BME280;60755;51.374;10.662;2022-07-29T02:46:49;97323.53;;;15.98;54.30
72677;BME280;60755;51.374;10.662;2022-07-29T02:49:29;97323.78;;;16.02;54.26
72677;BME280;60755;51.374;10.662;2022-07-29T02:52:00;97321.41;;;15.95;54.37
72677;BME280;60755;51.374;10.662;2022-07-29T02:54:31;97323.53;;;15.93;54.13
72677;BME280;60755;51.374;10.662;2022-07-29T02:57:04;97323.28;;;15.89;54.30
72677;BME280;60755;51.374;10.662;2022-07-29T02:59:34;97320.88;;;15.93;54.68
72677;BME280;60755;51.374;10.662;2022-07-29T03:02:03;97318.75;;;15.80;55.40
72677;BME280;60755;51.374;10.662;2022-07-29T03:04:34;97312.66;;;15.79;54.83
72677;BME280;60755;51.374;10.662;2022-07-29T03:07:01;97311.88;;;15.89;54.59
72677;BME280;60755;51.374;10.662;2022-07-29T03:09:29;97314.53;;;15.84;55.12
72677;BME280;60755;51.374;10.662;2022-07-29T03:11:56;97311.34;;;15.82;54.83
72677;BME280;60755;51.374;10.662;2022-07-29T03:14:23;97317.19;;;15.74;55.71
72677;BME280;60755;51.374;10.662;2022-07-29T03:16:51;97304.72;;;15.69;55.66
72677;BME280;60755;51.374;10.662;2022-07-29T03:19:18;97302.84;;;15.59;56.21
72677;BME280;60755;51.374;10.662;2022-07-29T03:21:47;97297.31;;;15.61;55.93
72677;BME280;60755;51.374;10.662;2022-07-29T03:24:25;97300.50;;;15.68;55.30
72677;BME280;60755;51.374;10.662;2022-07-29T03:26:51;97299.44;;;15.64;55.86
72677;BME280;60755;51.374;10.662;2022-07-29T03:29:18;97294.63;;;15.56;55.60
72677;BME280;60755;51.374;10.662;2022-07-29T03:31:44;97303.38;;;15.56;56.34
72677;BME280;60755;51.374;10.662;2022-07-29T03:34:10;97296.47;;;15.45;55.87
72677;BME280;60755;51.374;10.662;2022-07-29T03:36:37;97300.50;;;15.68;55.82
72677;BME280;60755;51.374;10.662;2022-07-29T03:39:05;97295.69;;;15.60;56.08
72677;BME280;60755;51.374;10.662;2022-07-29T03:41:33;97302.34;;;15.62;55.92
72677;BME280;60755;51.374;10.662;2022-07-29T03:44:01;97296.47;;;15.55;56.31
72677;BME280;60755;51.374;10.662;2022-07-29T03:46:28;97297.78;;;15.48;55.98
72677;BME280;60755;51.374;10.662;2022-07-29T03:48:59;97301.53;;;15.62;56.08
72677;BME280;60755;51.374;10.662;2022-07-29T03:51:27;97303.41;;;15.61;55.58
72677;BME280;60755;51.374;10.662;2022-07-29T03:53:53;97302.34;;;15.83;55.42
72677;BME280;60755;51.374;10.662;2022-07-29T03:56:22;97302.59;;;15.86;55.57
72677;BME280;60755;51.374;10.662;2022-07-29T03:58:49;97305.00;;;15.83;55.91
72677;BME280;60755;51.374;10.662;2022-07-29T04:01:18;97299.16;;;15.81;55.56
72677;BME280;60755;51.374;10.662;2022-07-29T04:03:45;97300.50;;;15.68;55.15
72677;BME280;60755;51.374;10.662;2022-07-29T04:06:12;97291.72;;;15.78;55.22
72677;BME280;60755;51.374;10.662;2022-07-29T04:08:38;97292.25;;;15.80;55.59
72677;BME280;60755;51.374;10.662;2022-07-29T04:11:05;97297.03;;;15.83;55.09
72677;BME280;60755;51.374;10.662;2022-07-29T04:13:33;97297.84;;;15.83;55.11
72677;BME280;60755;51.374;10.662;2022-07-29T04:16:00;97297.03;;;15.62;56.33
72677;BME280;60755;51.374;10.662;2022-07-29T04:18:26;97307.66;;;15.73;56.10
72677;BME280;60755;51.374;10.662;2022-07-29T04:20:52;97309.22;;;15.79;55.36
72677;BME280;60755;51.374;10.662;2022-07-29T04:23:19;97307.63;;;15.78;55.55
72677;BME280;60755;51.374;10.662;2022-07-29T04:25:45;97309.78;;;15.81;55.09
72677;BME280;60755;51.374;10.662;2022-07-29T04:28:12;97301.28;;;15.79;55.23
72677;BME280;60755;51.374;10.662;2022-07-29T04:30:40;97303.94;;;15.74;55.33
72677;BME280;60755;51.374;10.662;2022-07-29T04:33:07;97297.31;;;15.76;56.02
72677;BME280;60755;51.374;10.662;2022-07-29T04:35:35;97296.25;;;15.72;55.87
72677;BME280;60755;51.374;10.662;2022-07-29T04:38:01;97297.03;;;15.83;55.53
72677;BME280;60755;51.374;10.662;2022-07-29T04:40:28;97302.59;;;15.91;55.21
72677;BME280;60755;51.374;10.662;2022-07-29T04:42:54;97305.22;;;16.02;55.30
72677;BME280;60755;51.374;10.662;2022-07-29T04:45:21;97306.53;;;16.14;54.62
72677;BME280;60755;51.374;10.662;2022-07-29T04:47:49;97299.91;;;16.22;54.79
72677;BME280;60755;51.374;10.662;2022-07-29T04:50:15;97305.44;;;16.26;53.73
72677;BME280;60755;51.374;10.662;2022-07-29T04:52:42;97304.63;;;16.40;53.78
72677;BME280;60755;51.374;10.662;2022-07-29T04:55:09;97305.41;;;16.46;53.88
72677;BME280;60755;51.374;10.662;2022-07-29T04:57:35;97302.75;;;16.41;54.04
72677;BME280;60755;51.374;10.662;2022-07-29T05:00:03;97299.03;;;16.47;53.69
72677;BME280;60755;51.374;10.662;2022-07-29T05:02:29;97307.50;;;16.44;54.18
72677;BME280;60755;51.374;10.662;2022-07-29T05:04:57;97304.28;;;16.62;53.72
72677;BME280;60755;51.374;10.662;2022-07-29T05:07:24;97311.16;;;16.73;53.92
72677;BME280;60755;51.374;10.662;2022-07-29T05:09:50;97313.81;;;16.73;52.81
72677;BME280;60755;51.374;10.662;2022-07-29T05:12:18;97309.34;;;16.48;54.59
72677;BME280;60755;51.374;10.662;2022-07-29T05:14:44;97310.63;;;16.66;53.41
72677;BME280;60755;51.374;10.662;2022-07-29T05:17:10;97307.19;;;16.71;53.74
72677;BME280;60755;51.374;10.662;2022-07-29T05:19:37;97313.25;;;16.82;53.13
72677;BME280;60755;51.374;10.662;2022-07-29T05:22:05;97314.31;;;16.75;53.17
72677;BME280;60755;51.374;10.662;2022-07-29T05:24:32;97320.56;;;17.00;53.39
72677;BME280;60755;51.374;10.662;2022-07-29T05:26:58;97311.84;;;17.39;51.69
72677;BME280;60755;51.374;10.662;2022-07-29T05:29:25;97311.53;;;17.45;51.86
72677;BME280;60755;51.374;10.662;2022-07-29T05:31:51;97318.25;;;17.38;51.93
72677;BME280;60755;51.374;10.662;2022-07-29T05:34:18;97310.66;;;17.21;52.31
72677;BME280;60755;51.374;10.662;2022-07-29T05:36:44;97311.34;;;17.37;52.14
72677;BME280;60755;51.374;10.662;2022-07-29T05:39:12;97312.63;;;17.39;52.49
72677;BME280;60755;51.374;10.662;2022-07-29T05:41:39;97318.31;;;17.67;51.52
72677;BME280;60755;51.374;10.662;2022-07-29T05:44:05;97310.19;;;17.48;51.25
72677;BME280;60755;51.374;10.662;2022-07-29T05:46:31;97321.47;;;17.74;51.56
72677;BME280;60755;51.374;10.662;2022-07-29T05:48:58;97313.34;;;18.18;50.29
72677;BME280;60755;51.374;10.662;2022-07-29T05:51:24;97317.94;;;18.36;49.39
72677;BME280;60755;51.374;10.662;2022-07-29T05:53:51;97309.88;;;18.47;49.45
72677;BME280;60755;51.374;10.662;2022-07-29T05:56:19;97319.75;;;18.70;49.13
72677;BME280;60755;51.374;10.662;2022-07-29T05:58:46;97308.78;;;19.33;47.03
72677;BME280;60755;51.374;10.662;2022-07-29T06:01:12;97312.94;;;19.20;47.55
72677;BME280;60755;51.374;10.662;2022-07-29T06:03:39;97309.03;;;20.02;45.72
72677;BME280;60755;51.374;10.662;2022-07-29T06:06:06;97314.50;;;19.78;45.86
72677;BME280;60755;51.374;10.662;2022-07-29T06:08:33;97306.06;;;19.57;45.53
72677;BME280;60755;51.374;10.662;2022-07-29T06:11:02;97300.03;;;19.46;48.29
72677;BME280;60755;51.374;10.662;2022-07-29T06:13:30;97300.06;;;19.27;47.66
72677;BME280;60755;51.374;10.662;2022-07-29T06:15:57;97296.66;;;19.41;47.32
72677;BME280;60755;51.374;10.662;2022-07-29T06:18:23;97298.84;;;20.04;47.22
72677;BME280;60755;51.374;10.662;2022-07-29T06:20:49;97300.44;;;20.19;45.12
72677;BME280;60755;51.374;10.662;2022-07-29T06:23:16;97296.72;;;20.61;44.03
72677;BME280;60755;51.374;10.662;2022-07-29T06:25:42;97292.69;;;21.13;42.86
72677;BME280;60755;51.374;10.662;2022-07-29T06:28:09;97286.06;;;22.54;40.30
72677;BME280;60755;51.374;10.662;2022-07-29T06:30:37;97298.31;;;23.55;38.65
72677;BME280;60755;51.374;10.662;2022-07-29T06:33:03;97301.59;;;22.92;39.59
72677;BME280;60755;51.374;10.662;2022-07-29T06:35:30;97299.38;;;22.94;38.98
72677;BME280;60755;51.374;10.662;2022-07-29T06:37:56;97294.25;;;22.57;39.57
72677;BME280;60755;51.374;10.662;2022-07-29T06:40:22;97295.53;;;22.77;41.17
72677;BME280;60755;51.374;10.662;2022-07-29T06:43:07;97298.06;;;22.74;39.40
72677;BME280;60755;51.374;10.662;2022-07-29T06:45:34;97299.28;;;22.59;41.38
72677;BME280;60755;51.374;10.662;2022-07-29T06:48:01;97299.56;;;22.49;40.99
72677;BME280;60755;51.374;10.662;2022-07-29T06:50:28;97300.38;;;22.58;41.56
72677;BME280;60755;51.374;10.662;2022-07-29T06:52:54;97305.09;;;22.52;42.48
72677;BME280;60755;51.374;10.662;2022-07-29T06:55:21;97310.81;;;23.42;39.85
72677;BME280;60755;51.374;10.662;2022-07-29T06:57:47;97314.66;;;25.95;34.42
72677;BME280;60755;51.374;10.662;2022-07-29T07:00:14;97316.06;;;28.83;32.83
72677;BME280;60755;51.374;10.662;2022-07-29T07:02:40;97322.09;;;31.56;26.66
72677;BME280;60755;51.374;10.662;2022-07-29T07:05:08;97319.66;;;32.59;23.99
72677;BME280;60755;51.374;10.662;2022-07-29T07:07:35;97320.03;;;33.89;24.27
72677;BME280;60755;51.374;10.662;2022-07-29T07:10:01;97310.16;;;33.56;23.10
72677;BME280;60755;51.374;10.662;2022-07-29T07:12:28;97319.03;;;32.80;22.94
72677;BME280;60755;51.374;10.662;2022-07-29T07:14:55;97314.16;;;33.87;23.08
72677;BME280;60755;51.374;10.662;2022-07-29T07:17:21;97318.81;;;31.73;26.03
72677;BME280;60755;51.374;10.662;2022-07-29T07:19:47;97319.09;;;29.32;27.89
72677;BME280;60755;51.374;10.662;2022-07-29T07:22:15;97312.84;;;28.30;30.46
72677;BME280;60755;51.374;10.662;2022-07-29T07:24:42;97318.72;;;26.46;32.12
72677;BME280;60755;51.374;10.662;2022-07-29T07:27:08;97319.31;;;25.53;34.81
72677;BME280;60755;51.374;10.662;2022-07-29T07:29:34;97324.03;;;26.22;35.13
72677;BME280;60755;51.374;10.662;2022-07-29T07:32:01;97322.94;;;29.89;30.19
72677;BME280;60755;51.374;10.662;2022-07-29T07:34:28;97320.25;;;32.35;27.49
72677;BME280;60755;51.374;10.662;2022-07-29T07:36:55;97316.34;;;33.49;23.49
72677;BME280;60755;51.374;10.662;2022-07-29T07:39:22;97316.28;;;29.64;27.74
72677;BME280;60755;51.374;10.662;2022-07-29T07:41:49;97312.09;;;27.85;32.19
72677;BME280;60755;51.374;10.662;2022-07-29T07:44:16;97317.47;;;28.29;29.91
72677;BME280;60755;51.374;10.662;2022-07-29T07:46:43;97320.09;;;27.98;30.22
72677;BME280;60755;51.374;10.662;2022-07-29T07:49:10;97330.97;;;26.68;33.51
72677;BME280;60755;51.374;10.662;2022-07-29T07:51:36;97327.81;;;26.42;33.13
72677;BME280;60755;51.374;10.662;2022-07-29T07:54:03;97320.97;;;26.69;32.91
72677;BME280;60755;51.374;10.662;2022-07-29T07:56:31;97314.66;;;27.14;35.00
72677;BME280;60755;51.374;10.662;2022-07-29T07:58:58;97319.78;;;27.59;32.13
72677;BME280;60755;51.374;10.662;2022-07-29T08:01:24;97325.41;;;27.78;32.68
72677;BME280;60755;51.374;10.662;2022-07-29T08:03:51;97329.75;;;28.27;32.12
72677;BME280;60755;51.374;10.662;2022-07-29T08:06:17;97321.91;;;28.53;31.09
72677;BME280;60755;51.374;10.662;2022-07-29T08:08:44;97331.81;;;27.33;32.75
72677;BME280;60755;51.374;10.662;2022-07-29T08:11:10;97329.25;;;27.65;33.02
72677;BME280;60755;51.374;10.662;2022-07-29T08:13:38;97321.84;;;27.62;30.46
72677;BME280;60755;51.374;10.662;2022-07-29T08:16:06;97321.19;;;27.53;33.63
72677;BME280;60755;51.374;10.662;2022-07-29T08:18:41;97318.56;;;27.69;31.80
72677;BME280;60755;51.374;10.662;2022-07-29T08:21:07;97322.19;;;27.20;34.74
72677;BME280;60755;51.374;10.662;2022-07-29T08:23:34;97325.41;;;27.66;32.35
72677;BME280;60755;51.374;10.662;2022-07-29T08:26:03;97323.09;;;26.75;32.09
72677;BME280;60755;51.374;10.662;2022-07-29T08:28:30;97317.34;;;25.83;32.71
72677;BME280;60755;51.374;10.662;2022-07-29T08:30:58;97317.66;;;26.27;33.10
72677;BME280;60755;51.374;10.662;2022-07-29T08:33:24;97319.59;;;25.93;33.40
72677;BME280;60755;51.374;10.662;2022-07-29T08:35:51;97316.97;;;25.30;35.53
72677;BME280;60755;51.374;10.662;2022-07-29T08:38:17;97322.38;;;25.63;38.12
72677;BME280;60755;51.374;10.662;2022-07-29T08:40:44;97319.38;;;26.43;33.61
72677;BME280;60755;51.374;10.662;2022-07-29T08:43:11;97326.88;;;26.26;34.46
72677;BME280;60755;51.374;10.662;2022-07-29T08:45:42;97326.00;;;26.46;32.64
72677;BME280;60755;51.374;10.662;2022-07-29T08:48:11;97322.22;;;26.71;34.81
72677;BME280;60755;51.374;10.662;2022-07-29T08:50:38;97314.66;;;27.14;33.63
72677;BME280;60755;51.374;10.662;2022-07-29T08:53:07;97316.03;;;26.95;33.18
72677;BME280;60755;51.374;10.662;2022-07-29T08:55:33;97322.75;;;27.01;33.04
72677;BME280;60755;51.374;10.662;2022-07-29T08:58:00;97315.31;;;27.11;31.68
72677;BME280;60755;51.374;10.662;2022-07-29T09:00:28;97317.25;;;26.86;31.65
72677;BME280;60755;51.374;10.662;2022-07-29T09:02:57;97312.75;;;26.53;33.38
72677;BME280;60755;51.374;10.662;2022-07-29T09:05:25;97311.63;;;26.78;32.68
72677;BME280;60755;51.374;10.662;2022-07-29T09:07:52;97308.59;;;26.92;32.18
72677;BME280;60755;51.374;10.662;2022-07-29T09:10:19;97310.06;;;26.53;32.90
72677;BME280;60755;51.374;10.662;2022-07-29T09:12:46;97307.38;;;26.65;32.12
72677;BME280;60755;51.374;10.662;2022-07-29T09:15:14;97301.97;;;26.53;32.67
72677;BME280;60755;51.374;10.662;2022-07-29T09:17:41;97304.06;;;26.35;33.29
72677;BME280;60755;51.374;10.662;2022-07-29T09:20:10;97303.13;;;26.40;32.17
72677;BME280;60755;51.374;10.662;2022-07-29T09:22:38;97303.53;;;25.84;33.15
72677;BME280;60755;51.374;10.662;2022-07-29T09:25:05;97301.88;;;25.92;36.11
72677;BME280;60755;51.374;10.662;2022-07-29T09:27:32;97299.59;;;25.82;33.37
72677;BME280;60755;51.374;10.662;2022-07-29T09:29:59;97294.63;;;25.72;33.55
72677;BME280;60755;51.374;10.662;2022-07-29T09:32:27;97292.06;;;25.33;34.15
72677;BME280;60755;51.374;10.662;2022-07-29T09:35:18;97287.47;;;25.34;34.02
72677;BME280;60755;51.374;10.662;2022-07-29T09:37:47;97286.59;;;25.00;33.51
72677;BME280;60755;51.374;10.662;2022-07-29T09:40:15;97295.06;;;24.61;34.30
72677;BME280;60755;51.374;10.662;2022-07-29T09:42:43;97289.69;;;24.61;35.29
72677;BME280;60755;51.374;10.662;2022-07-29T09:45:10;97292.19;;;24.66;34.45
72677;BME280;60755;51.374;10.662;2022-07-29T09:47:44;97284.03;;;24.53;34.11
72677;BME280;60755;51.374;10.662;2022-07-29T09:50:12;97285.50;;;24.42;34.83
72677;BME280;60755;51.374;10.662;2022-07-29T09:52:48;97280.78;;;24.39;35.17
72677;BME280;60755;51.374;10.662;2022-07-29T09:55:16;97286.72;;;24.07;35.55
72677;BME280;60755;51.374;10.662;2022-07-29T09:57:44;97283.84;;;24.12;34.81
72677;BME280;60755;51.374;10.662;2022-07-29T10:00:12;97276.97;;;23.93;36.32
72677;BME280;60755;51.374;10.662;2022-07-29T10:02:41;97276.38;;;23.79;35.98
72677;BME280;60755;51.374;10.662;2022-07-29T10:05:17;97275.47;;;23.66;35.25
72677;BME280;60755;51.374;10.662;2022-07-29T10:07:45;97271.03;;;23.62;36.18
72677;BME280;60755;51.374;10.662;2022-07-29T10:10:19;97267.19;;;23.80;36.11
72677;BME280;60755;51.374;10.662;2022-07-29T10:12:52;97271.25;;;24.04;34.82
72677;BME280;60755;51.374;10.662;2022-07-29T10:15:21;97275.50;;;24.51;34.08
72677;BME280;60755;51.374;10.662;2022-07-29T10:17:48;97271.53;;;24.87;34.38
72677;BME280;60755;51.374;10.662;2022-07-29T10:20:15;97262.50;;;25.13;34.77
72677;BME280;60755;51.374;10.662;2022-07-29T10:22:42;97274.69;;;25.31;34.32
72677;BME280;60755;51.374;10.662;2022-07-29T10:25:10;97264.84;;;25.14;33.52
72677;BME280;60755;51.374;10.662;2022-07-29T10:27:37;97271.19;;;24.89;33.61
72677;BME280;60755;51.374;10.662;2022-07-29T10:30:06;97273.38;;;24.95;33.30
72677;BME280;60755;51.374;10.662;2022-07-29T10:32:43;97261.31;;;25.43;32.43
72677;BME280;60755;51.374;10.662;2022-07-29T10:35:23;97274.88;;;25.47;32.14
72677;BME280;60755;51.374;10.662;2022-07-29T10:38:07;97265.72;;;25.27;31.51
72677;BME280;60755;51.374;10.662;2022-07-29T10:40:42;97261.50;;;25.38;31.33
72677;BME280;60755;51.374;10.662;2022-07-29T10:43:32;97259.16;;;25.70;31.57
72677;BME280;60755;51.374;10.662;2022-07-29T10:46:03;97260.38;;;26.17;31.51
72677;BME280;60755;51.374;10.662;2022-07-29T10:48:30;97264.84;;;26.13;30.17
72677;BME280;60755;51.374;10.662;2022-07-29T10:50:58;97262.88;;;26.35;31.31
72677;BME280;60755;51.374;10.662;2022-07-29T10:53:47;97252.88;;;26.72;29.76
72677;BME280;60755;51.374;10.662;2022-07-29T10:56:32;97249.16;;;26.89;31.17
72677;BME280;60755;51.374;10.662;2022-07-29T10:59:24;97245.53;;;26.97;31.06
72677;BME280;60755;51.374;10.662;2022-07-29T11:01:53;97259.59;;;26.78;29.81
72677;BME280;60755;51.374;10.662;2022-07-29T11:07:23;97253.56;;;26.32;30.18
72677;BME280;60755;51.374;10.662;2022-07-29T11:10:21;97260.16;;;26.10;30.44
72677;BME280;60755;51.374;10.662;2022-07-29T11:12:48;97267.91;;;26.12;30.08
72677;BME280;60755;51.374;10.662;2022-07-29T11:15:18;97253.66;;;26.36;31.25
72677;BME280;60755;51.374;10.662;2022-07-29T11:18:04;97258.81;;;26.77;30.87
72677;BME280;60755;51.374;10.662;2022-07-29T11:20:32;97262.88;;;26.59;29.35
72677;BME280;60755;51.374;10.662;2022-07-29T11:22:59;97260.28;;;26.63;30.79
72677;BME280;60755;51.374;10.662;2022-07-29T11:25:26;97255.94;;;26.58;31.05
72677;BME280;60755;51.374;10.662;2022-07-29T11:27:54;97255.59;;;26.47;30.59
72677;BME280;60755;51.374;10.662;2022-07-29T11:30:49;97261.72;;;25.99;32.14
72677;BME280;60755;51.374;10.662;2022-07-29T11:33:29;97265.00;;;25.72;32.49
72677;BME280;60755;51.374;10.662;2022-07-29T11:36:09;97252.91;;;25.45;33.65
72677;BME280;60755;51.374;10.662;2022-07-29T11:38:36;97258.50;;;25.73;32.83
72677;BME280;60755;51.374;10.662;2022-07-29T11:41:22;97255.06;;;25.63;33.70
72677;BME280;60755;51.374;10.662;2022-07-29T11:43:50;97248.47;;;25.61;33.22
72677;BME280;60755;51.374;10.662;2022-07-29T11:46:43;97240.00;;;25.71;33.21
72677;BME280;60755;51.374;10.662;2022-07-29T11:49:10;97242.91;;;25.78;33.91
72677;BME280;60755;51.374;10.662;2022-07-29T11:51:37;97248.56;;;25.85;35.22
72677;BME280;60755;51.374;10.662;2022-07-29T11:54:04;97254.09;;;26.01;32.53
72677;BME280;60755;51.374;10.662;2022-07-29T11:56:31;97242.66;;;26.53;31.87
72677;BME280;60755;51.374;10.662;2022-07-29T11:59:03;97241.59;;;26.94;32.54
72677;BME280;60755;51.374;10.662;2022-07-29T12:01:31;97242.63;;;26.77;32.07
72677;BME280;60755;51.374;10.662;2022-07-29T12:04:04;97238.75;;;27.15;32.50
72677;BME280;60755;51.374;10.662;2022-07-29T12:06:31;97241.47;;;27.43;31.68
72677;BME280;60755;51.374;10.662;2022-07-29T12:08:58;97241.78;;;27.01;31.15
72677;BME280;60755;51.374;10.662;2022-07-29T12:11:25;97244.19;;;26.78;31.86
72677;BME280;60755;51.374;10.662;2022-07-29T12:13:52;97233.53;;;26.82;31.49
72677;BME280;60755;51.374;10.662;2022-07-29T12:16:19;97237.63;;;26.52;31.80
72677;BME280;60755;51.374;10.662;2022-07-29T12:18:56;97229.66;;;26.55;31.09
72677;BME280;60755;51.374;10.662;2022-07-29T12:21:22;97230.31;;;26.52;30.86
72677;BME280;60755;51.374;10.662;2022-07-29T12:23:53;97234.56;;;26.29;31.94
72677;BME280;60755;51.374;10.662;2022-07-29T12:26:20;97228.41;;;26.53;30.61
72677;BME280;60755;51.374;10.662;2022-07-29T12:28:47;97225.25;;;26.38;31.04
72677;BME280;60755;51.374;10.662;2022-07-29T12:31:14;97230.09;;;26.45;31.63
72677;BME280;60755;51.374;10.662;2022-07-29T12:33:41;97228.06;;;26.54;30.60
72677;BME280;60755;51.374;10.662;2022-07-29T12:36:09;97221.19;;;26.69;30.22
72677;BME280;60755;51.374;10.662;2022-07-29T12:38:36;97226.44;;;26.77;30.16
72677;BME280;60755;51.374;10.662;2022-07-29T12:41:03;97226.53;;;26.93;30.48
72677;BME280;60755;51.374;10.662;2022-07-29T12:43:30;97226.03;;;26.51;32.02
72677;BME280;60755;51.374;10.662;2022-07-29T12:45:57;97224.47;;;26.50;31.32
72677;BME280;60755;51.374;10.662;2022-07-29T12:48:33;97218.41;;;26.65;32.63
72677;BME280;60755;51.374;10.662;2022-07-29T12:51:02;97218.09;;;26.95;31.57
72677;BME280;60755;51.374;10.662;2022-07-29T12:53:30;97203.53;;;27.52;31.58
72677;BME280;60755;51.374;10.662;2022-07-29T12:55:57;97206.19;;;27.96;29.98
72677;BME280;60755;51.374;10.662;2022-07-29T12:58:33;97207.75;;;28.44;30.87
72677;BME280;60755;51.374;10.662;2022-07-29T13:01:08;97200.78;;;28.62;28.72
72677;BME280;60755;51.374;10.662;2022-07-29T13:03:47;97195.28;;;28.75;29.19